createdAt,value
2017-08-03T00:00:30.694Z,48.06
2017-08-03T00:02:59.054Z,48.13
2017-08-03T00:05:27.419Z,48.10
2017-08-03T00:07:54.984Z,48.39
2017-08-03T00:10:22.791Z,48.88
2017-08-03T00:12:50.353Z,48.82
2017-08-03T00:15:18.283Z,50.07
2017-08-03T00:17:46.125Z,50.20
2017-08-03T00:20:13.661Z,50.09
2017-08-03T00:22:41.253Z,50.87
2017-08-03T00:25:08.887Z,52.50
2017-08-03T00:27:36.409Z,52.55
2017-08-03T00:30:07.182Z,53.25
2017-08-03T00:32:34.725Z,53.63
2017-08-03T00:35:02.347Z,54.44
2017-08-03T00:37:29.964Z,56.09
2017-08-03T00:39:57.870Z,56.11
2017-08-03T00:42:25.631Z,56.24
2017-08-03T00:44:53.208Z,57.76
2017-08-03T00:47:20.795Z,56.08
2017-08-03T00:49:48.329Z,55.33
2017-08-03T00:52:15.935Z,54.35
2017-08-03T00:54:43.496Z,54.31
2017-08-03T00:57:11.262Z,54.19
2017-08-03T00:59:38.817Z,54.02
2017-08-03T01:02:06.823Z,53.66
2017-08-03T01:04:34.405Z,53.27
2017-08-03T01:07:01.966Z,53.43
2017-08-03T01:09:29.549Z,53.94
2017-08-03T01:11:57.095Z,54.02
2017-08-03T01:14:24.649Z,53.13
2017-08-03T01:16:52.271Z,53.69
2017-08-03T01:19:19.815Z,53.50
2017-08-03T01:21:47.369Z,53.41
2017-08-03T01:24:14.977Z,53.43
2017-08-03T01:26:42.517Z,52.93
2017-08-03T01:29:10.063Z,52.76
2017-08-03T01:31:37.630Z,51.64
2017-08-03T01:34:05.181Z,51.26
2017-08-03T01:36:32.743Z,50.99
2017-08-03T01:39:00.301Z,50.99
2017-08-03T01:41:28.276Z,51.33
2017-08-03T01:43:56.029Z,51.57
2017-08-03T01:46:23.624Z,51.23
2017-08-03T01:48:51.235Z,51.06
2017-08-03T01:51:18.900Z,51.32
2017-08-03T01:53:46.506Z,50.97
2017-08-03T01:56:14.040Z,50.66
2017-08-03T01:58:41.616Z,50.78
2017-08-03T02:01:09.214Z,50.58
2017-08-03T02:03:36.756Z,50.72
2017-08-03T02:06:04.399Z,51.14
2017-08-03T02:08:32.009Z,51.15
2017-08-03T02:10:59.568Z,51.26
2017-08-03T02:13:27.155Z,51.45
2017-08-03T02:15:54.709Z,51.51
2017-08-03T02:18:22.327Z,51.63
2017-08-03T02:20:49.954Z,51.45
2017-08-03T02:23:17.548Z,51.07
2017-08-03T02:25:45.239Z,51.68
2017-08-03T02:28:12.854Z,52.00
2017-08-03T02:30:40.478Z,51.93
2017-08-03T02:33:08.019Z,51.94
2017-08-03T02:35:35.646Z,52.31
2017-08-03T02:38:03.287Z,52.52
2017-08-03T02:40:30.896Z,52.67
2017-08-03T02:42:58.481Z,52.97
2017-08-03T02:45:26.090Z,53.33
2017-08-03T02:47:53.678Z,53.06
2017-08-03T02:50:21.286Z,53.03
2017-08-03T02:52:48.886Z,52.94
2017-08-03T02:55:16.467Z,52.82
2017-08-03T02:57:44.014Z,53.14
2017-08-03T03:00:11.638Z,53.51
2017-08-03T03:02:39.182Z,53.99
2017-08-03T03:05:06.745Z,53.86
2017-08-03T03:07:34.342Z,54.06
2017-08-03T03:10:01.939Z,53.77
2017-08-03T03:12:29.491Z,53.37
2017-08-03T03:14:57.089Z,53.89
2017-08-03T03:17:24.865Z,54.37
2017-08-03T03:19:52.383Z,54.83
2017-08-03T03:22:19.948Z,55.47
2017-08-03T03:24:47.529Z,54.82
2017-08-03T03:27:15.154Z,54.82
2017-08-03T03:29:42.720Z,54.64
2017-08-03T03:32:10.307Z,54.42
2017-08-03T03:34:37.873Z,54.26
2017-08-03T03:37:05.445Z,54.17
2017-08-03T03:39:33.046Z,54.18
2017-08-03T03:42:00.614Z,54.49
2017-08-03T03:44:28.219Z,55.05
2017-08-03T03:46:55.798Z,54.61
2017-08-03T03:49:23.328Z,54.71
2017-08-03T03:51:50.952Z,54.53
2017-08-03T03:54:18.578Z,54.61
2017-08-03T03:56:46.105Z,54.82
2017-08-03T03:59:13.700Z,55.08
2017-08-03T04:01:41.290Z,55.28
2017-08-03T04:04:08.814Z,54.99
2017-08-03T04:06:36.582Z,54.79
2017-08-03T04:09:04.212Z,55.21
2017-08-03T04:11:31.841Z,55.91
2017-08-03T04:13:59.627Z,56.41
2017-08-03T04:16:27.231Z,56.40
2017-08-03T04:18:54.815Z,57.02
2017-08-03T04:21:22.423Z,57.26
2017-08-03T04:23:50.069Z,57.60
2017-08-03T04:26:17.677Z,56.37
2017-08-03T04:28:45.571Z,56.00
2017-08-03T04:31:13.165Z,56.42
2017-08-03T04:33:40.749Z,56.98
2017-08-03T04:36:08.330Z,57.22
2017-08-03T04:38:35.925Z,57.50
2017-08-03T04:41:03.485Z,56.75
2017-08-03T04:43:31.073Z,57.79
2017-08-03T04:45:58.710Z,57.81
2017-08-03T04:48:26.226Z,57.60
2017-08-03T04:50:53.753Z,56.98
2017-08-03T04:53:21.372Z,56.29
2017-08-03T04:55:48.961Z,55.83
2017-08-03T04:58:16.520Z,55.39
2017-08-03T05:00:44.149Z,55.07
2017-08-03T05:03:11.709Z,54.70
2017-08-03T05:05:39.265Z,54.61
2017-08-03T05:08:06.848Z,53.79
2017-08-03T05:10:34.416Z,53.55
2017-08-03T05:13:01.990Z,52.75
2017-08-03T05:15:29.609Z,52.58
2017-08-03T05:17:57.146Z,51.22
2017-08-03T05:20:24.710Z,50.23
2017-08-03T05:22:52.335Z,49.27
2017-08-03T05:25:19.869Z,49.16
2017-08-03T05:27:50.839Z,48.48
2017-08-03T05:30:28.171Z,49.49
2017-08-03T05:32:55.787Z,48.34
2017-08-03T05:35:23.374Z,48.65
2017-08-03T05:37:50.961Z,48.90
2017-08-03T05:40:18.570Z,48.45
2017-08-03T05:42:46.165Z,48.35
2017-08-03T05:45:13.773Z,47.72
2017-08-03T05:47:41.313Z,48.50
2017-08-03T05:50:08.829Z,47.81
2017-08-03T05:52:36.433Z,47.52
2017-08-03T05:55:04.055Z,47.01
2017-08-03T05:57:31.630Z,46.41
2017-08-03T05:59:59.202Z,46.86
2017-08-03T06:02:26.839Z,44.36
2017-08-03T06:04:54.378Z,45.56
2017-08-03T06:07:21.952Z,44.62
2017-08-03T06:09:49.571Z,44.03
2017-08-03T06:12:17.350Z,45.07
2017-08-03T06:14:58.862Z,43.64
2017-08-03T06:17:26.395Z,42.91
2017-08-03T06:19:53.957Z,40.78
2017-08-03T06:22:21.531Z,40.24
2017-08-03T06:24:49.135Z,40.37
2017-08-03T06:27:16.653Z,39.84
2017-08-03T06:29:44.451Z,39.09
2017-08-03T06:32:12.047Z,38.22
2017-08-03T06:34:39.598Z,39.45
2017-08-03T06:37:07.147Z,39.48
2017-08-03T06:39:34.727Z,38.65
2017-08-03T06:42:03.609Z,38.35
2017-08-03T06:44:32.225Z,38.57
2017-08-03T06:47:00.429Z,39.79
2017-08-03T06:49:27.966Z,39.42
2017-08-03T06:51:55.504Z,39.59
2017-08-03T06:54:23.158Z,39.02
2017-08-03T06:56:50.767Z,38.47
2017-08-03T06:59:19.964Z,37.61
2017-08-03T07:01:47.604Z,37.41
2017-08-03T07:04:16.634Z,36.56
2017-08-03T07:06:44.165Z,35.80
2017-08-03T07:09:11.720Z,35.60
2017-08-03T07:11:39.285Z,36.24
2017-08-03T07:14:07.780Z,35.91
2017-08-03T07:16:35.872Z,35.65
2017-08-03T07:19:06.016Z,35.29
2017-08-03T07:21:33.528Z,34.57
2017-08-03T07:24:01.326Z,33.98
2017-08-03T07:26:29.810Z,33.65
2017-08-03T07:28:57.794Z,32.57
2017-08-03T07:31:27.135Z,32.65
2017-08-03T07:33:55.047Z,31.90
2017-08-03T07:36:22.861Z,32.19
2017-08-03T07:38:50.430Z,31.82
2017-08-03T07:41:18.180Z,31.49
2017-08-03T07:43:46.730Z,31.49
2017-08-03T07:46:16.825Z,31.63
2017-08-03T07:48:45.060Z,31.22
2017-08-03T07:51:14.366Z,32.29
2017-08-03T07:53:41.957Z,33.44
2017-08-03T07:56:09.918Z,31.96
2017-08-03T07:58:37.723Z,31.49
2017-08-03T08:01:05.678Z,31.01
2017-08-03T08:03:33.263Z,30.12
2017-08-03T08:06:00.849Z,30.02
2017-08-03T08:08:29.166Z,29.26
2017-08-03T08:10:56.771Z,29.01
2017-08-03T08:13:24.305Z,29.29
2017-08-03T08:15:52.865Z,28.62
2017-08-03T08:18:20.420Z,28.73
2017-08-03T08:20:48.302Z,28.98
2017-08-03T08:23:17.644Z,29.23
2017-08-03T08:25:45.335Z,28.88
2017-08-03T08:28:12.991Z,28.69
2017-08-03T08:30:40.752Z,28.11
2017-08-03T08:33:08.382Z,28.39
2017-08-03T08:35:36.075Z,27.41
2017-08-03T08:38:03.790Z,27.79
2017-08-03T08:40:31.431Z,28.67
2017-08-03T08:42:59.106Z,28.12
2017-08-03T08:45:26.756Z,27.42
2017-08-03T08:47:54.387Z,26.86
2017-08-03T08:50:22.075Z,27.99
2017-08-03T08:52:49.771Z,27.21
2017-08-03T08:55:17.494Z,26.94
2017-08-03T08:57:45.195Z,26.24
2017-08-03T09:00:12.873Z,23.62
2017-08-03T09:02:40.534Z,23.83
2017-08-03T09:05:08.214Z,23.08
2017-08-03T09:07:35.894Z,22.79
2017-08-03T09:10:03.573Z,22.96
2017-08-03T09:15:52.879Z,21.17
2017-08-03T09:18:21.380Z,20.36
2017-08-03T09:20:49.042Z,20.72
2017-08-03T09:23:16.714Z,21.68
2017-08-03T09:25:44.485Z,22.79
2017-08-03T09:28:12.133Z,22.26
2017-08-03T09:30:39.808Z,20.71
2017-08-03T09:36:28.145Z,22.10
2017-08-03T09:42:16.778Z,20.72
2017-08-03T09:44:44.842Z,18.60
2017-08-03T09:47:12.523Z,16.83
2017-08-03T09:49:40.239Z,18.02
2017-08-03T09:52:08.153Z,17.11
2017-08-03T09:54:35.789Z,17.05
2017-08-03T09:57:03.482Z,16.73
2017-08-03T09:59:31.247Z,16.47
2017-08-03T10:01:58.951Z,16.63
2017-08-03T10:04:26.606Z,16.44
2017-08-03T10:06:54.268Z,14.80
2017-08-03T10:09:21.948Z,15.57
2017-08-03T10:11:49.570Z,17.04
2017-08-03T10:14:18.190Z,14.92
2017-08-03T10:16:45.909Z,16.06
2017-08-03T10:19:13.540Z,15.66
2017-08-03T10:21:41.225Z,15.20
2017-08-03T10:24:08.932Z,15.31
2017-08-03T10:26:36.541Z,15.30
2017-08-03T10:29:04.190Z,14.91
2017-08-03T10:31:31.848Z,14.22
2017-08-03T10:33:59.510Z,13.38
2017-08-03T10:36:27.190Z,13.44
2017-08-03T10:42:15.594Z,12.00
2017-08-03T10:44:43.195Z,12.68
2017-08-03T10:47:10.788Z,12.39
2017-08-03T10:49:38.435Z,12.88
2017-08-03T10:52:06.115Z,11.28
2017-08-03T10:54:33.756Z,11.74
2017-08-03T10:57:01.445Z,12.01
2017-08-03T10:59:29.066Z,11.75
2017-08-03T11:01:56.706Z,11.31
2017-08-03T11:04:24.433Z,12.42
2017-08-03T11:06:52.093Z,13.19
2017-08-03T11:09:19.812Z,13.32
2017-08-03T11:11:47.492Z,12.57
2017-08-03T11:14:15.160Z,12.84
2017-08-03T11:16:42.886Z,12.77
2017-08-03T11:19:10.533Z,12.51
2017-08-03T11:21:38.133Z,12.46
2017-08-03T11:24:05.793Z,11.60
2017-08-03T11:26:33.443Z,10.33
2017-08-03T11:29:01.100Z,9.19
2017-08-03T11:31:28.762Z,9.05
2017-08-03T11:33:56.405Z,9.03
2017-08-03T11:36:24.039Z,10.31
2017-08-03T11:38:51.772Z,10.69
2017-08-03T11:41:19.533Z,11.45
2017-08-03T11:43:47.156Z,12.73
2017-08-03T11:46:14.838Z,12.31
2017-08-03T11:48:42.430Z,12.98
2017-08-03T11:51:10.044Z,13.13
2017-08-03T11:53:37.772Z,12.26
2017-08-03T11:56:05.444Z,11.85
2017-08-03T11:58:33.108Z,12.20
2017-08-03T12:01:00.792Z,12.50
2017-08-03T12:03:28.415Z,13.11
2017-08-03T12:05:56.092Z,13.84
2017-08-03T12:08:23.771Z,14.35
2017-08-03T12:10:51.403Z,14.53
2017-08-03T12:13:19.064Z,13.39
2017-08-03T12:15:46.725Z,13.52
2017-08-03T12:18:14.388Z,13.49
2017-08-03T12:20:42.004Z,15.43
2017-08-03T12:23:09.699Z,15.55
2017-08-03T12:25:37.360Z,15.35
2017-08-03T12:28:05.049Z,15.88
2017-08-03T12:30:32.786Z,16.24
2017-08-03T12:33:00.485Z,16.38
2017-08-03T12:35:28.100Z,16.60
2017-08-03T12:37:55.767Z,16.12
2017-08-03T12:40:23.487Z,15.88
2017-08-03T12:42:51.338Z,16.15
2017-08-03T12:45:19.073Z,16.43
2017-08-03T12:47:46.834Z,16.46
2017-08-03T12:50:14.480Z,16.60
2017-08-03T12:52:42.195Z,16.29
2017-08-03T12:55:09.836Z,16.24
2017-08-03T12:57:37.494Z,15.96
2017-08-03T13:00:08.179Z,15.96
2017-08-03T13:02:35.879Z,15.85
2017-08-03T13:05:03.561Z,15.91
2017-08-03T13:07:31.299Z,15.97
2017-08-03T13:09:59.011Z,15.47
2017-08-03T13:12:26.735Z,15.16
2017-08-03T13:14:54.425Z,15.68
2017-08-03T13:17:22.059Z,15.42
2017-08-03T13:19:49.791Z,15.23
2017-08-03T13:22:17.585Z,15.31
2017-08-03T13:24:45.246Z,15.64
2017-08-03T13:27:12.841Z,16.14
2017-08-03T13:29:40.513Z,16.26
2017-08-03T13:32:08.344Z,16.49
2017-08-03T13:34:36.114Z,16.60
2017-08-03T13:37:03.892Z,15.94
2017-08-03T13:39:31.618Z,15.93
2017-08-03T13:41:59.313Z,16.04
2017-08-03T13:44:27.095Z,15.68
2017-08-03T13:46:54.861Z,15.90
2017-08-03T13:49:22.604Z,15.72
2017-08-03T13:51:50.273Z,15.73
2017-08-03T13:54:18.951Z,16.09
2017-08-03T13:57:08.133Z,16.52
2017-08-03T13:59:35.859Z,16.51
2017-08-03T14:02:03.639Z,16.27
2017-08-03T14:04:31.371Z,16.56
2017-08-03T14:07:00.673Z,16.33
2017-08-03T14:09:28.420Z,16.44
2017-08-03T14:11:56.806Z,15.78
2017-08-03T14:14:24.458Z,15.61
2017-08-03T14:16:53.719Z,15.87
2017-08-03T14:19:21.737Z,16.14
2017-08-03T14:21:50.531Z,15.04
2017-08-03T14:24:25.249Z,15.79
2017-08-03T14:26:53.106Z,15.36
2017-08-03T14:29:20.780Z,14.99
2017-08-03T14:31:49.365Z,14.63
2017-08-03T14:34:18.055Z,14.31
2017-08-03T14:36:46.928Z,14.78
2017-08-03T14:42:35.911Z,14.88
2017-08-03T14:45:03.626Z,15.08
2017-08-03T14:47:31.264Z,14.25
2017-08-03T14:49:58.928Z,14.71
2017-08-03T14:52:26.608Z,14.79
2017-08-03T14:54:54.308Z,15.20
2017-08-03T14:57:22.816Z,15.65
2017-08-03T14:59:50.473Z,16.26
2017-08-03T15:02:19.053Z,16.50
2017-08-03T15:04:47.218Z,16.42
2017-08-03T15:07:14.915Z,17.79
2017-08-03T15:09:42.595Z,18.67
2017-08-03T15:12:10.329Z,19.06
2017-08-03T15:14:37.992Z,18.92
2017-08-03T15:17:06.429Z,19.59
2017-08-03T15:19:34.053Z,20.03
2017-08-03T15:22:01.785Z,20.45
2017-08-03T15:24:29.460Z,20.84
2017-08-03T15:26:57.201Z,21.34
2017-08-03T15:29:24.856Z,21.67
2017-08-03T15:31:52.509Z,22.02
2017-08-03T15:34:20.171Z,22.26
2017-08-03T15:36:47.867Z,22.39
2017-08-03T15:39:15.501Z,22.31
2017-08-03T15:41:43.165Z,22.56
2017-08-03T15:44:10.768Z,22.64
2017-08-03T15:46:38.491Z,22.47
2017-08-03T15:49:06.201Z,22.96
2017-08-03T15:51:33.855Z,23.56
2017-08-03T15:54:01.544Z,24.32
2017-08-03T15:56:29.199Z,24.70
2017-08-03T15:58:56.800Z,25.12
2017-08-03T16:01:24.510Z,25.30
2017-08-03T16:03:52.141Z,25.11
2017-08-03T16:06:19.812Z,24.58
2017-08-03T16:08:47.509Z,25.14
2017-08-03T16:11:15.130Z,25.68
2017-08-03T16:13:42.801Z,25.83
2017-08-03T16:16:10.559Z,25.98
2017-08-03T16:18:38.219Z,26.00
2017-08-03T16:21:05.849Z,26.32
2017-08-03T16:23:33.518Z,26.26
2017-08-03T16:26:01.220Z,26.51
2017-08-03T16:28:28.849Z,26.70
2017-08-03T16:30:56.592Z,27.11
2017-08-03T16:33:24.232Z,27.16
2017-08-03T16:35:52.713Z,27.38
2017-08-03T16:38:23.344Z,27.59
2017-08-03T16:40:50.990Z,28.02
2017-08-03T16:43:19.953Z,28.12
2017-08-03T16:45:47.703Z,28.39
2017-08-03T16:48:15.344Z,28.80
2017-08-03T16:50:42.976Z,29.14
2017-08-03T16:53:10.717Z,29.30
2017-08-03T16:55:39.079Z,29.87
2017-08-03T16:58:07.568Z,29.99
2017-08-03T17:00:35.312Z,30.27
2017-08-03T17:03:02.982Z,30.32
2017-08-03T17:05:30.663Z,30.30
2017-08-03T17:07:58.341Z,30.58
2017-08-03T17:10:25.985Z,30.75
2017-08-03T17:12:53.648Z,31.17
2017-08-03T17:15:21.403Z,31.18
2017-08-03T17:17:49.096Z,31.25
2017-08-03T17:20:16.750Z,31.34
2017-08-03T17:22:45.900Z,31.54
2017-08-03T17:27:46.417Z,31.54
2017-08-03T17:30:14.228Z,31.75
2017-08-03T17:32:42.019Z,31.77
2017-08-03T17:35:09.766Z,31.92
2017-08-03T17:37:37.434Z,31.91
2017-08-03T17:40:05.156Z,31.81
2017-08-03T17:42:32.795Z,32.00
2017-08-03T17:45:00.438Z,31.94
2017-08-03T17:47:28.204Z,32.15
2017-08-03T17:49:56.045Z,32.04
2017-08-03T17:52:23.677Z,32.09
2017-08-03T17:54:52.209Z,32.33
2017-08-03T17:57:19.865Z,32.68
2017-08-03T17:59:48.218Z,33.06
2017-08-03T18:02:15.973Z,33.56
2017-08-03T18:04:43.572Z,33.66
2017-08-03T18:07:11.169Z,34.23
2017-08-03T18:09:38.811Z,34.20
2017-08-03T18:12:06.479Z,33.77
2017-08-03T18:14:34.112Z,33.81
2017-08-03T18:17:01.778Z,33.58
2017-08-03T18:19:29.388Z,33.36
2017-08-03T18:21:56.948Z,34.20
2017-08-03T18:24:24.594Z,33.59
2017-08-03T18:26:52.387Z,33.52
2017-08-03T18:29:20.270Z,33.80
2017-08-03T18:31:48.793Z,33.82
2017-08-03T18:34:17.221Z,33.33
2017-08-03T18:36:45.759Z,34.04
2017-08-03T18:39:13.350Z,34.00
2017-08-03T18:41:40.992Z,34.16
2017-08-03T18:44:08.779Z,34.51
2017-08-03T18:46:37.422Z,34.49
2017-08-03T18:49:05.940Z,34.99
2017-08-03T18:51:33.702Z,34.74
2017-08-03T18:54:02.936Z,33.90
2017-08-03T18:56:30.598Z,34.33
2017-08-03T18:58:59.054Z,33.87
2017-08-03T19:01:27.531Z,34.44
2017-08-03T19:03:56.253Z,33.93
2017-08-03T19:06:24.098Z,34.35
2017-08-03T19:08:52.615Z,34.43
2017-08-03T19:11:21.074Z,33.74
2017-08-03T19:13:48.777Z,33.72
2017-08-03T19:16:16.436Z,34.15
2017-08-03T19:18:44.006Z,34.30
2017-08-03T19:21:11.667Z,34.40
2017-08-03T19:23:39.402Z,34.25
2017-08-03T19:26:07.026Z,34.88
2017-08-03T19:28:34.618Z,35.04
2017-08-03T19:31:02.211Z,35.15
2017-08-03T19:33:31.285Z,35.20
2017-08-03T19:35:59.049Z,35.30
2017-08-03T19:38:27.197Z,35.15
2017-08-03T19:40:55.570Z,34.97
2017-08-03T19:43:24.121Z,35.42
2017-08-03T19:45:52.691Z,35.21
2017-08-03T19:48:20.484Z,35.23
2017-08-03T19:50:48.117Z,35.47
2017-08-03T19:53:15.807Z,35.77
2017-08-03T19:55:43.365Z,36.19
2017-08-03T19:58:11.225Z,36.40
2017-08-03T20:00:38.898Z,36.51
2017-08-03T20:03:06.656Z,36.67
2017-08-03T20:05:42.072Z,36.60
2017-08-03T20:08:09.747Z,36.64
2017-08-03T20:10:44.225Z,36.89
2017-08-03T20:13:18.511Z,36.89
2017-08-03T20:15:46.984Z,37.04
2017-08-03T20:18:14.898Z,37.06
2017-08-03T20:20:42.546Z,37.07
2017-08-03T20:23:10.182Z,36.85
2017-08-03T20:25:39.635Z,36.73
2017-08-03T20:28:07.972Z,36.93
2017-08-03T20:30:35.634Z,36.70
2017-08-03T20:33:03.410Z,36.90
2017-08-03T20:35:31.015Z,36.88
2017-08-03T20:37:58.625Z,36.75
2017-08-03T20:40:26.210Z,36.63
2017-08-03T20:42:53.817Z,36.65
2017-08-03T20:47:54.136Z,36.83
2017-08-03T20:50:21.764Z,37.73
2017-08-03T20:52:49.341Z,38.05
2017-08-03T20:55:17.885Z,39.31
2017-08-03T20:57:45.567Z,39.58
2017-08-03T21:00:13.288Z,39.89
2017-08-03T21:02:40.877Z,40.10
2017-08-03T21:05:08.489Z,40.33
2017-08-03T21:07:36.310Z,40.75
2017-08-03T21:10:04.694Z,41.11
2017-08-03T21:12:32.590Z,40.82
2017-08-03T21:15:00.294Z,40.33
2017-08-03T21:17:29.866Z,40.29
2017-08-03T21:20:00.478Z,41.23
2017-08-03T21:22:32.460Z,41.62
2017-08-03T21:25:03.191Z,41.92
2017-08-03T21:27:35.342Z,41.77
2017-08-03T21:30:10.416Z,41.34
2017-08-03T21:32:39.496Z,41.10
2017-08-03T21:35:08.851Z,41.43
2017-08-03T21:37:39.668Z,41.95
2017-08-03T21:40:10.011Z,42.34
2017-08-03T21:42:41.717Z,42.67
2017-08-03T21:45:12.204Z,42.64
2017-08-03T21:47:41.833Z,42.82
2017-08-03T21:50:11.243Z,43.03
2017-08-03T21:52:42.305Z,43.27
2017-08-03T21:55:12.206Z,43.58
2017-08-03T21:57:41.224Z,43.92
2017-08-03T22:00:10.889Z,43.47
2017-08-03T22:02:41.676Z,43.42
2017-08-03T22:05:12.757Z,43.56
2017-08-03T22:07:44.715Z,44.20
2017-08-03T22:10:12.985Z,44.54
2017-08-03T22:12:43.496Z,44.68
2017-08-03T22:15:12.439Z,44.34
2017-08-03T22:17:42.430Z,44.12
2017-08-03T22:20:12.788Z,44.99
2017-08-03T22:22:41.312Z,44.54
2017-08-03T22:25:11.474Z,44.76
2017-08-03T22:27:40.609Z,43.94
2017-08-03T22:30:10.465Z,43.92
2017-08-03T22:32:41.262Z,44.62
2017-08-03T22:35:09.731Z,44.87
2017-08-03T22:37:39.184Z,44.80
2017-08-03T22:40:08.540Z,44.91
2017-08-03T22:42:37.253Z,44.34
2017-08-03T22:45:04.870Z,45.82
2017-08-03T22:47:32.488Z,45.47
2017-08-03T22:50:00.091Z,46.08
2017-08-03T22:52:28.079Z,45.77
2017-08-03T22:54:56.578Z,46.13
2017-08-03T22:57:26.811Z,46.06
2017-08-03T22:59:56.909Z,45.67
2017-08-03T23:02:26.895Z,46.03
2017-08-03T23:05:02.971Z,44.59
2017-08-03T23:07:32.384Z,44.95
2017-08-03T23:10:03.118Z,45.72
2017-08-03T23:12:34.564Z,46.28
2017-08-03T23:15:07.130Z,46.58
2017-08-03T23:17:38.289Z,46.34
2017-08-03T23:20:09.482Z,46.31
2017-08-03T23:22:38.955Z,45.98
2017-08-03T23:25:10.042Z,45.72
2017-08-03T23:27:39.712Z,45.84
2017-08-03T23:30:12.432Z,46.36
2017-08-03T23:32:41.725Z,46.30
2017-08-03T23:35:12.018Z,46.60
2017-08-03T23:37:40.502Z,46.86
2017-08-03T23:40:12.377Z,47.21
2017-08-03T23:42:41.475Z,47.47
2017-08-03T23:45:11.545Z,47.32
2017-08-03T23:47:43.764Z,47.38
2017-08-03T23:50:13.567Z,47.43
2017-08-03T23:52:43.559Z,46.71
2017-08-03T23:55:14.781Z,46.75
2017-08-03T23:57:44.001Z,46.89
